createdAt,value
2019-04-16T00:01:16.990Z,7.55
2019-04-16T00:03:48.072Z,8.00
2019-04-16T00:06:27.955Z,7.08
2019-04-16T00:09:07.835Z,7.95
2019-04-16T00:11:39.003Z,9.53
2019-04-16T00:14:26.900Z,11.45
2019-04-16T00:16:56.269Z,10.68
2019-04-16T00:19:25.636Z,7.25
2019-04-16T00:22:12.942Z,8.13
2019-04-16T00:24:43.984Z,8.78
2019-04-16T00:27:13.352Z,9.28
2019-04-16T00:29:43.421Z,12.37
2019-04-16T00:32:14.625Z,10.45
2019-04-16T00:34:44.757Z,7.47
2019-04-16T00:37:14.735Z,7.92
2019-04-16T00:39:44.099Z,8.38
2019-04-16T00:42:13.471Z,8.10
2019-04-16T00:44:42.847Z,8.25
2019-04-16T00:47:12.283Z,7.00
2019-04-16T00:49:41.639Z,9.30
2019-04-16T00:52:11.432Z,7.67
2019-04-16T00:54:42.490Z,9.20
2019-04-16T00:57:17.992Z,9.15
2019-04-16T00:59:46.423Z,9.20
2019-04-16T01:02:15.784Z,7.47
2019-04-16T01:04:45.147Z,9.70
2019-04-16T01:07:14.572Z,10.13
2019-04-16T01:09:43.931Z,8.88
2019-04-16T01:12:13.304Z,9.98
2019-04-16T01:14:42.679Z,12.23
2019-04-16T01:17:12.050Z,10.35
2019-04-16T01:19:41.959Z,11.75
2019-04-16T01:22:15.705Z,7.12
2019-04-16T01:24:42.673Z,9.83
2019-04-16T01:27:12.046Z,8.88
2019-04-16T01:29:41.469Z,10.23
2019-04-16T01:32:20.975Z,9.25
2019-04-16T01:34:52.782Z,11.83
2019-04-16T01:37:27.003Z,11.03
2019-04-16T01:42:26.608Z,11.57
2019-04-16T01:44:59.358Z,12.28
2019-04-16T01:47:27.402Z,11.08
2019-04-16T01:49:56.995Z,10.20
2019-04-16T01:52:26.359Z,12.15
2019-04-16T01:54:55.753Z,9.85
2019-04-16T01:57:25.175Z,12.15
2019-04-16T01:59:54.539Z,9.58
2019-04-16T02:02:23.925Z,10.23
2019-04-16T02:04:53.305Z,11.75
2019-04-16T02:07:27.709Z,12.23
2019-04-16T02:09:53.791Z,11.73
2019-04-16T02:12:23.761Z,11.68
2019-04-16T02:14:53.129Z,9.85
2019-04-16T02:17:26.674Z,10.82
2019-04-16T02:19:53.605Z,10.15
2019-04-16T02:22:23.242Z,10.78
2019-04-16T02:24:52.609Z,9.68
2019-04-16T02:27:23.439Z,12.88
2019-04-16T02:29:53.790Z,9.40
2019-04-16T02:32:23.332Z,11.43
2019-04-16T02:34:53.046Z,9.20
2019-04-16T02:37:22.688Z,9.98
2019-04-16T02:39:52.056Z,12.50
2019-04-16T02:42:21.434Z,11.83
2019-04-16T02:44:50.797Z,10.20
2019-04-16T02:47:20.170Z,10.93
2019-04-16T02:49:49.548Z,12.00
2019-04-16T02:52:29.628Z,11.73
2019-04-16T02:55:18.793Z,12.30
2019-04-16T02:58:05.950Z,10.28
2019-04-16T03:00:49.102Z,10.13
2019-04-16T03:03:27.588Z,12.37
2019-04-16T03:06:00.727Z,11.85
2019-04-16T03:08:28.890Z,11.48
2019-04-16T03:10:58.212Z,12.45
2019-04-16T03:13:28.489Z,10.88
2019-04-16T03:16:06.015Z,12.37
2019-04-16T03:18:35.603Z,11.60
2019-04-16T03:21:04.965Z,12.98
2019-04-16T03:23:36.664Z,13.90
2019-04-16T03:26:05.437Z,12.18
2019-04-16T03:28:34.836Z,12.78
2019-04-16T03:31:08.122Z,15.55
2019-04-16T03:33:35.699Z,13.62
2019-04-16T03:36:05.371Z,13.13
2019-04-16T03:38:36.956Z,12.73
2019-04-16T03:41:06.156Z,13.58
2019-04-16T03:43:35.530Z,12.37
2019-04-16T03:46:04.902Z,13.40
2019-04-16T03:48:34.285Z,13.62
2019-04-16T03:51:04.816Z,13.28
2019-04-16T03:53:34.407Z,12.37
2019-04-16T03:56:04.007Z,17.55
2019-04-16T03:58:37.949Z,17.37
2019-04-16T04:01:04.541Z,13.13
2019-04-16T04:03:33.927Z,17.30
2019-04-16T04:06:03.511Z,20.35
2019-04-16T04:08:34.394Z,12.40
2019-04-16T04:11:09.138Z,16.82
2019-04-16T04:13:34.916Z,16.95
2019-04-16T04:16:04.350Z,13.40
2019-04-16T04:18:34.176Z,13.55
2019-04-16T04:21:03.549Z,19.02
2019-04-16T04:23:32.915Z,15.15
2019-04-16T04:26:02.288Z,12.35
2019-04-16T04:28:31.652Z,13.50
2019-04-16T04:31:01.945Z,16.23
2019-04-16T04:33:40.986Z,12.25
2019-04-16T04:36:10.301Z,13.00
2019-04-16T04:38:40.139Z,15.30
2019-04-16T04:41:09.793Z,13.70
2019-04-16T04:43:39.550Z,13.83
2019-04-16T04:46:12.876Z,11.95
2019-04-16T04:48:40.479Z,15.25
2019-04-16T04:51:09.855Z,11.78
2019-04-16T04:53:39.219Z,11.35
2019-04-16T04:56:08.596Z,13.08
2019-04-16T04:58:37.957Z,16.12
2019-04-16T05:01:09.564Z,14.63
2019-04-16T05:03:56.111Z,14.45
2019-04-16T05:06:28.011Z,11.90
2019-04-16T05:09:00.347Z,13.53
2019-04-16T05:11:28.698Z,14.47
2019-04-16T05:13:58.065Z,13.22
2019-04-16T05:16:27.425Z,14.87
2019-04-16T05:18:57.014Z,13.98
2019-04-16T05:21:26.383Z,18.90
2019-04-16T05:23:57.471Z,17.52
2019-04-16T05:26:26.852Z,11.57
2019-04-16T05:28:57.851Z,14.13
2019-04-16T05:31:27.223Z,12.40
2019-04-16T05:34:01.930Z,20.32
2019-04-16T05:36:27.701Z,16.27
2019-04-16T05:38:57.080Z,13.83
2019-04-16T05:41:26.511Z,13.10
2019-04-16T05:44:00.832Z,18.98
2019-04-16T05:46:27.147Z,16.23
2019-04-16T05:48:56.522Z,17.17
2019-04-16T05:51:30.919Z,16.90
2019-04-16T05:53:58.646Z,15.78
2019-04-16T05:56:41.793Z,14.25
2019-04-16T05:59:11.155Z,12.53
2019-04-16T06:01:57.233Z,13.38
2019-04-16T06:04:25.731Z,18.98
2019-04-16T06:06:55.929Z,14.28
2019-04-16T06:09:25.492Z,14.55
2019-04-16T06:11:54.852Z,15.75
2019-04-16T06:14:28.867Z,14.05
2019-04-16T06:17:00.418Z,23.80
2019-04-16T06:19:37.265Z,15.48
2019-04-16T06:22:17.351Z,15.40
2019-04-16T06:25:00.290Z,15.13
2019-04-16T06:27:31.344Z,12.55
2019-04-16T06:30:05.051Z,15.23
2019-04-16T06:32:52.487Z,18.60
2019-04-16T06:35:23.544Z,11.15
2019-04-16T06:38:10.526Z,16.25
2019-04-16T06:40:44.369Z,14.65
2019-04-16T06:43:15.382Z,13.18
2019-04-16T06:45:49.078Z,20.40
2019-04-16T06:48:20.354Z,18.80
2019-04-16T06:51:11.752Z,15.25
2019-04-16T06:53:56.848Z,12.65
2019-04-16T06:56:46.896Z,12.58
2019-04-16T06:59:26.594Z,18.55
2019-04-16T07:01:59.222Z,14.53
2019-04-16T07:04:35.967Z,17.85
2019-04-16T07:07:21.747Z,12.85
2019-04-16T07:09:57.011Z,14.38
2019-04-16T07:12:26.151Z,15.90
2019-04-16T07:14:55.572Z,27.52
2019-04-16T07:17:24.962Z,18.62
2019-04-16T07:19:54.320Z,16.12
2019-04-16T07:22:24.163Z,21.20
2019-04-16T07:24:56.606Z,18.25
2019-04-16T07:27:27.774Z,15.93
2019-04-16T07:30:04.861Z,18.17
2019-04-16T07:32:31.548Z,15.03
2019-04-16T07:35:05.219Z,16.80
2019-04-16T07:37:48.672Z,22.95
2019-04-16T07:40:31.532Z,18.77
2019-04-16T07:43:05.314Z,22.45
2019-04-16T07:45:45.267Z,18.37
2019-04-16T07:48:16.281Z,16.67
2019-04-16T07:51:01.796Z,14.78
2019-04-16T07:53:34.963Z,14.10
2019-04-16T07:56:06.042Z,17.95
2019-04-16T07:58:35.415Z,13.00
2019-04-16T08:01:05.270Z,13.45
2019-04-16T08:03:34.640Z,13.25
2019-04-16T08:06:04.158Z,13.33
2019-04-16T08:08:33.500Z,16.55
2019-04-16T08:11:02.874Z,14.13
2019-04-16T08:13:34.398Z,14.28
2019-04-16T08:16:04.486Z,14.58
2019-04-16T08:18:35.490Z,12.45
2019-04-16T08:21:10.111Z,12.40
2019-04-16T08:23:44.234Z,14.18
2019-04-16T08:26:14.083Z,13.25
2019-04-16T08:28:43.470Z,10.65
2019-04-16T08:31:14.510Z,11.43
2019-04-16T08:33:43.873Z,13.85
2019-04-16T08:36:13.260Z,14.28
2019-04-16T08:38:42.710Z,11.70
2019-04-16T08:41:13.126Z,12.25
2019-04-16T08:43:42.732Z,11.10
2019-04-16T08:46:12.346Z,11.33
2019-04-16T08:48:41.722Z,12.68
2019-04-16T08:51:11.095Z,10.35
2019-04-16T08:53:43.795Z,9.38
2019-04-16T08:56:12.369Z,13.40
2019-04-16T08:58:41.753Z,10.32
2019-04-16T09:01:15.465Z,12.43
2019-04-16T09:03:43.861Z,9.58
2019-04-16T09:06:14.173Z,9.45
2019-04-16T09:08:53.142Z,10.80
2019-04-16T09:11:23.881Z,10.50
2019-04-16T09:14:03.786Z,12.95
2019-04-16T09:16:35.100Z,10.40
2019-04-16T09:19:06.114Z,12.00
2019-04-16T09:21:35.520Z,7.78
2019-04-16T09:24:22.042Z,10.85
2019-04-16T09:27:12.594Z,11.95
2019-04-16T09:29:46.196Z,9.80
2019-04-16T09:35:09.855Z,12.68
2019-04-16T09:37:42.296Z,13.53
2019-04-16T09:40:28.619Z,10.43
2019-04-16T09:42:59.476Z,8.43
2019-04-16T09:45:29.026Z,9.30
2019-04-16T09:47:58.399Z,8.50
2019-04-16T09:50:27.786Z,15.43
2019-04-16T09:52:57.138Z,9.28
2019-04-16T09:55:27.721Z,8.50
2019-04-16T09:57:58.744Z,9.80
2019-04-16T10:00:32.388Z,11.38
2019-04-16T10:03:09.433Z,8.73
2019-04-16T10:05:38.808Z,11.00
2019-04-16T10:08:09.561Z,10.63
2019-04-16T10:10:39.300Z,11.08
2019-04-16T10:13:08.682Z,10.58
2019-04-16T10:15:38.045Z,13.65
2019-04-16T10:18:07.430Z,9.75
2019-04-16T10:20:40.260Z,13.62
2019-04-16T10:23:09.973Z,14.80
2019-04-16T10:25:39.719Z,8.65
2019-04-16T10:28:10.736Z,10.90
2019-04-16T10:30:41.752Z,8.08
2019-04-16T10:33:11.141Z,11.95
2019-04-16T10:35:40.527Z,8.95
2019-04-16T10:38:13.641Z,9.80
2019-04-16T10:40:44.856Z,12.63
2019-04-16T10:43:15.904Z,7.70
2019-04-16T10:45:55.912Z,8.63
2019-04-16T10:48:41.903Z,9.73
2019-04-16T10:51:16.273Z,9.53
2019-04-16T10:53:47.541Z,8.75
2019-04-16T10:56:21.263Z,12.13
2019-04-16T10:59:08.167Z,9.40
2019-04-16T11:01:55.498Z,9.05
2019-04-16T11:04:28.995Z,12.68
2019-04-16T11:07:00.000Z,10.40
2019-04-16T11:09:29.367Z,8.80
2019-04-16T11:11:58.758Z,10.40
2019-04-16T11:14:28.184Z,9.13
2019-04-16T11:16:57.494Z,9.68
2019-04-16T11:19:27.205Z,7.95
2019-04-16T11:21:56.647Z,9.30
2019-04-16T11:24:26.088Z,13.28
2019-04-16T11:26:55.421Z,10.82
2019-04-16T11:29:25.074Z,12.93
2019-04-16T11:31:54.468Z,9.05
2019-04-16T11:34:23.922Z,10.03
2019-04-16T11:36:53.279Z,11.15
2019-04-16T11:39:22.644Z,8.73
2019-04-16T11:41:52.449Z,8.35
2019-04-16T11:44:21.853Z,8.45
2019-04-16T11:46:51.265Z,7.87
2019-04-16T11:49:21.376Z,8.75
2019-04-16T11:51:51.063Z,9.53
2019-04-16T11:54:20.471Z,10.30
2019-04-16T11:56:49.810Z,14.75
2019-04-16T11:59:19.469Z,9.10
2019-04-16T12:01:50.743Z,9.80
2019-04-16T12:04:30.675Z,8.75
2019-04-16T12:07:05.180Z,9.45
2019-04-16T12:09:46.855Z,8.78
2019-04-16T12:12:17.844Z,8.30
2019-04-16T12:15:05.434Z,8.78
2019-04-16T12:17:39.014Z,11.15
2019-04-16T12:20:25.988Z,10.82
2019-04-16T12:23:12.942Z,10.82
2019-04-16T12:25:50.005Z,10.32
2019-04-16T12:28:21.004Z,10.38
2019-04-16T12:30:52.013Z,8.48
2019-04-16T12:33:28.822Z,12.07
2019-04-16T12:36:12.770Z,9.98
2019-04-16T12:38:44.743Z,8.98
2019-04-16T12:41:18.462Z,10.08
2019-04-16T12:44:05.797Z,9.68
2019-04-16T12:46:54.885Z,9.08
2019-04-16T12:49:42.293Z,13.75
2019-04-16T12:52:17.519Z,13.72
2019-04-16T12:55:03.912Z,13.45
2019-04-16T12:57:50.693Z,11.80
2019-04-16T13:00:26.099Z,10.20
2019-04-16T13:03:16.383Z,8.15
2019-04-16T13:06:03.216Z,10.28
2019-04-16T13:08:46.136Z,9.18
2019-04-16T13:11:17.736Z,10.18
2019-04-16T13:13:57.869Z,11.12
2019-04-16T13:16:34.064Z,9.53
2019-04-16T13:19:04.457Z,7.33
2019-04-16T13:21:35.469Z,11.08
2019-04-16T13:24:06.582Z,9.15
2019-04-16T13:26:40.377Z,9.08
2019-04-16T13:29:11.388Z,9.30
2019-04-16T13:31:41.316Z,9.48
2019-04-16T13:34:10.696Z,10.10
2019-04-16T13:36:40.061Z,9.18
2019-04-16T13:39:15.540Z,9.13
2019-04-16T13:41:44.909Z,7.58
2019-04-16T13:44:18.672Z,7.87
2019-04-16T13:46:48.496Z,10.10
2019-04-16T13:49:32.305Z,8.73
2019-04-16T13:52:01.767Z,10.15
2019-04-16T13:54:38.811Z,9.43
2019-04-16T13:57:09.811Z,9.05
2019-04-16T13:59:55.719Z,12.43
2019-04-16T14:02:39.217Z,15.03
2019-04-16T14:05:11.512Z,13.32
2019-04-16T14:07:41.077Z,12.23
2019-04-16T14:10:10.958Z,12.03
2019-04-16T14:12:42.774Z,22.40
2019-04-16T14:15:12.359Z,11.35
2019-04-16T14:17:52.598Z,10.72
2019-04-16T14:20:14.384Z,9.26
2019-04-16T14:22:43.755Z,8.80
2019-04-16T14:25:13.834Z,9.50
2019-04-16T14:27:43.217Z,8.58
2019-04-16T14:30:17.594Z,8.48
2019-04-16T14:32:47.008Z,9.28
2019-04-16T14:35:32.441Z,13.65
2019-04-16T14:37:49.439Z,8.33
2019-04-16T14:40:21.445Z,8.53
2019-04-16T14:42:56.264Z,10.55
2019-04-16T14:45:56.605Z,11.83
2019-04-16T14:48:11.283Z,8.65
2019-04-16T14:50:40.640Z,9.08
2019-04-16T14:53:10.127Z,8.55
2019-04-16T14:55:43.770Z,6.97
2019-04-16T14:58:25.895Z,9.53
2019-04-16T15:01:06.046Z,12.65
2019-04-16T15:03:45.808Z,7.62
2019-04-16T15:06:17.060Z,9.10
2019-04-16T15:09:05.856Z,11.10
2019-04-16T15:11:53.608Z,11.45
2019-04-16T15:14:27.268Z,10.80
2019-04-16T15:17:01.253Z,11.03
2019-04-16T15:22:24.483Z,10.85
2019-04-16T15:25:11.573Z,11.38
2019-04-16T15:27:49.233Z,11.10
2019-04-16T15:30:33.685Z,11.47
2019-04-16T15:33:07.436Z,9.00
2019-04-16T15:35:43.678Z,9.03
2019-04-16T15:38:19.797Z,8.55
2019-04-16T15:40:50.809Z,9.48
2019-04-16T15:43:38.357Z,10.23
2019-04-16T15:46:24.991Z,8.35
2019-04-16T15:48:58.168Z,10.13
2019-04-16T15:51:29.181Z,8.23
2019-04-16T15:54:16.312Z,12.18
2019-04-16T15:56:59.814Z,10.03
2019-04-16T15:59:31.516Z,10.45
2019-04-16T16:02:02.521Z,11.65
2019-04-16T16:04:36.494Z,10.53
2019-04-16T16:07:08.698Z,10.60
2019-04-16T16:09:45.482Z,11.03
2019-04-16T16:12:16.773Z,11.12
2019-04-16T16:14:47.808Z,10.20
2019-04-16T16:17:19.445Z,9.55
2019-04-16T16:19:48.381Z,11.35
2019-04-16T16:22:17.753Z,10.60
2019-04-16T16:24:47.127Z,10.40
2019-04-16T16:27:16.524Z,10.90
2019-04-16T16:29:45.922Z,12.88
2019-04-16T16:32:15.298Z,13.15
2019-04-16T16:34:44.680Z,10.13
2019-04-16T16:37:14.063Z,12.78
2019-04-16T16:39:43.433Z,9.68
2019-04-16T16:42:12.928Z,9.25
2019-04-16T16:44:42.630Z,10.68
2019-04-16T16:47:22.453Z,11.68
2019-04-16T16:49:51.846Z,10.72
2019-04-16T16:52:38.111Z,10.93
2019-04-16T16:55:10.034Z,11.58
2019-04-16T16:57:47.460Z,14.30
2019-04-16T17:00:23.897Z,14.47
2019-04-16T17:02:56.861Z,9.63
2019-04-16T17:05:33.922Z,10.47
2019-04-16T17:08:03.284Z,10.50
2019-04-16T17:10:32.686Z,10.53
2019-04-16T17:13:02.323Z,11.85
2019-04-16T17:15:32.325Z,10.88
2019-04-16T17:18:02.154Z,12.45
2019-04-16T17:20:31.529Z,10.80
2019-04-16T17:23:00.915Z,11.33
2019-04-16T17:25:36.565Z,11.25
2019-04-16T17:28:01.566Z,10.32
2019-04-16T17:30:31.017Z,11.63
2019-04-16T17:33:00.406Z,12.93
2019-04-16T17:35:29.784Z,15.43
2019-04-16T17:38:02.721Z,12.90
2019-04-16T17:40:33.227Z,12.35
2019-04-16T17:43:12.655Z,12.07
2019-04-16T17:45:48.527Z,12.33
2019-04-16T17:48:25.444Z,13.22
2019-04-16T17:51:11.694Z,12.68
2019-04-16T17:53:42.702Z,12.45
2019-04-16T17:56:30.546Z,12.82
2019-04-16T17:59:01.572Z,13.45
2019-04-16T18:01:43.588Z,16.23
2019-04-16T18:04:14.441Z,9.80
2019-04-16T18:06:54.678Z,13.75
2019-04-16T18:09:25.880Z,11.68
2019-04-16T18:12:17.012Z,14.47
2019-04-16T18:15:00.059Z,14.10
2019-04-16T18:17:46.272Z,14.43
2019-04-16T18:20:16.996Z,12.82
2019-04-16T18:23:00.407Z,12.90
2019-04-16T18:25:34.513Z,15.13
2019-04-16T18:30:50.581Z,11.95
2019-04-16T18:33:24.361Z,11.63
2019-04-16T18:38:42.082Z,11.85
2019-04-16T18:41:31.541Z,12.28
2019-04-16T18:44:18.571Z,12.78
2019-04-16T18:46:49.585Z,13.60
2019-04-16T18:49:20.596Z,10.72
2019-04-16T18:51:50.433Z,11.97
2019-04-16T18:54:19.881Z,13.53
2019-04-16T18:56:49.246Z,9.93
2019-04-16T18:59:18.683Z,9.68
2019-04-16T19:01:55.746Z,11.63
2019-04-16T19:04:25.108Z,11.12
2019-04-16T19:06:54.711Z,9.50
2019-04-16T19:09:24.156Z,11.05
2019-04-16T19:11:53.533Z,11.43
2019-04-16T19:14:22.985Z,10.80
2019-04-16T19:16:52.444Z,13.50
2019-04-16T19:19:23.016Z,11.05
2019-04-16T19:21:53.090Z,11.40
2019-04-16T19:24:22.592Z,9.90
2019-04-16T19:26:52.585Z,9.30
2019-04-16T19:29:22.358Z,9.68
2019-04-16T19:31:54.757Z,10.43
2019-04-16T19:34:22.824Z,10.82
2019-04-16T19:36:52.367Z,10.25
2019-04-16T19:39:22.055Z,9.25
2019-04-16T19:41:52.954Z,10.13
2019-04-16T19:44:22.529Z,10.15
2019-04-16T19:46:53.697Z,11.83
2019-04-16T19:49:22.998Z,12.78
2019-04-16T19:51:52.842Z,14.00
2019-04-16T19:54:22.213Z,15.28
2019-04-16T19:56:52.096Z,11.25
2019-04-16T19:59:21.459Z,11.08
2019-04-16T20:01:50.832Z,12.37
2019-04-16T20:04:20.207Z,10.50
2019-04-16T20:06:49.589Z,11.03
2019-04-16T20:09:18.988Z,11.50
2019-04-16T20:11:48.358Z,12.80
2019-04-16T20:14:18.251Z,15.10
2019-04-16T20:16:47.679Z,12.35
2019-04-16T20:19:16.989Z,9.75
2019-04-16T20:21:46.646Z,9.85
2019-04-16T20:24:15.992Z,12.73
2019-04-16T20:26:45.367Z,11.65
2019-04-16T20:29:14.848Z,9.95
2019-04-16T20:31:44.216Z,10.55
2019-04-16T20:34:13.583Z,12.13
2019-04-16T20:36:43.181Z,9.55
2019-04-16T20:39:12.841Z,10.05
2019-04-16T20:41:42.332Z,13.35
2019-04-16T20:44:11.718Z,10.13
2019-04-16T20:46:41.153Z,11.48
2019-04-16T20:49:10.984Z,11.48
2019-04-16T20:51:40.396Z,13.32
2019-04-16T20:54:13.112Z,11.95
2019-04-16T20:56:40.855Z,13.00
2019-04-16T20:59:10.874Z,12.65
2019-04-16T21:01:40.305Z,11.47
2019-04-16T21:04:09.669Z,13.72
2019-04-16T21:06:41.829Z,10.35
2019-04-16T21:09:10.147Z,10.58
2019-04-16T21:11:40.965Z,13.48
2019-04-16T21:14:11.901Z,12.88
2019-04-16T21:16:41.271Z,12.13
2019-04-16T21:19:22.971Z,10.65
2019-04-16T21:21:41.762Z,11.03
2019-04-16T21:24:13.579Z,11.65
2019-04-16T21:26:42.237Z,11.28
2019-04-16T21:29:22.756Z,12.53
2019-04-16T21:31:59.497Z,10.95
2019-04-16T21:34:33.439Z,13.38
2019-04-16T21:39:57.209Z,11.88
2019-04-16T21:42:26.649Z,11.35
2019-04-16T21:44:56.413Z,12.53
2019-04-16T21:47:26.068Z,11.85
2019-04-16T21:49:55.471Z,11.53
2019-04-16T21:52:24.854Z,13.05
2019-04-16T21:54:54.244Z,10.28
2019-04-16T21:57:23.611Z,16.70
2019-04-16T21:59:56.840Z,10.50
2019-04-16T22:02:34.617Z,10.32
2019-04-16T22:05:02.669Z,13.30
2019-04-16T22:07:32.043Z,12.25
2019-04-16T22:10:01.519Z,13.08
2019-04-16T22:12:30.973Z,9.38
2019-04-16T22:15:00.354Z,11.12
2019-04-16T22:17:32.570Z,10.53
2019-04-16T22:20:03.925Z,10.98
2019-04-16T22:22:31.954Z,9.80
2019-04-16T22:25:02.075Z,10.20
2019-04-16T22:27:31.762Z,11.20
2019-04-16T22:30:01.140Z,13.53
2019-04-16T22:32:31.307Z,12.82
2019-04-16T22:35:00.771Z,12.82
2019-04-16T22:37:30.146Z,11.93
2019-04-16T22:40:01.162Z,12.75
2019-04-16T22:42:35.082Z,13.45
2019-04-16T22:45:11.046Z,12.55
2019-04-16T22:47:42.056Z,9.55
2019-04-16T22:50:16.008Z,10.58
2019-04-16T22:52:45.146Z,12.93
2019-04-16T22:55:13.642Z,13.13
2019-04-16T22:57:43.014Z,11.33
2019-04-16T23:00:16.842Z,11.10
2019-04-16T23:02:48.394Z,12.58
2019-04-16T23:05:17.605Z,13.63
2019-04-16T23:07:47.287Z,13.25
2019-04-16T23:10:17.804Z,12.27
2019-04-16T23:12:47.753Z,15.50
2019-04-16T23:15:17.560Z,11.73
2019-04-16T23:17:46.967Z,11.33
2019-04-16T23:20:28.455Z,12.00
2019-04-16T23:22:47.682Z,10.65
2019-04-16T23:25:17.499Z,12.43
2019-04-16T23:27:46.874Z,11.73
2019-04-16T23:30:18.505Z,11.33
2019-04-16T23:32:47.452Z,11.80
2019-04-16T23:35:16.815Z,9.10
2019-04-16T23:37:46.492Z,10.82
2019-04-16T23:40:15.879Z,10.57
2019-04-16T23:42:47.467Z,12.65
2019-04-16T23:45:25.555Z,9.95
2019-04-16T23:48:01.037Z,11.63
2019-04-16T23:53:12.929Z,10.88
2019-04-16T23:55:48.978Z,10.30
2019-04-16T23:58:28.501Z,11.43
